sensor_id;sensor_type;location;lat;lon;timestamp;P1;durP1;ratioP1;P2;durP2;ratioP2
11598;SDS011;5855;48.840;9.188;2023-03-31T00:01:16;4.50;;;1.80;;
11598;SDS011;5855;48.840;9.188;2023-03-31T00:03:43;6.40;;;2.00;;
11598;SDS011;5855;48.840;9.188;2023-03-31T00:06:10;4.78;;;1.80;;
11598;SDS011;5855;48.840;9.188;2023-03-31T00:08:41;5.72;;;1.90;;
11598;SDS011;5855;48.840;9.188;2023-03-31T00:11:10;3.25;;;1.90;;
11598;SDS011;5855;48.840;9.188;2023-03-31T00:13:37;4.30;;;1.92;;
11598;SDS011;5855;48.840;9.188;2023-03-31T00:16:05;6.63;;;1.83;;
11598;SDS011;5855;48.840;9.188;2023-03-31T00:18:34;6.32;;;1.80;;
11598;SDS011;5855;48.840;9.188;2023-03-31T00:21:05;4.93;;;1.70;;
11598;SDS011;5855;48.840;9.188;2023-03-31T00:23:33;4.07;;;2.00;;
11598;SDS011;5855;48.840;9.188;2023-03-31T00:26:00;4.80;;;1.80;;
11598;SDS011;5855;48.840;9.188;2023-03-31T00:28:28;4.18;;;1.95;;
11598;SDS011;5855;48.840;9.188;2023-03-31T00:30:58;5.72;;;2.17;;
11598;SDS011;5855;48.840;9.188;2023-03-31T00:33:27;6.30;;;2.05;;
11598;SDS011;5855;48.840;9.188;2023-03-31T00:35:54;6.60;;;1.80;;
11598;SDS011;5855;48.840;9.188;2023-03-31T00:38:25;5.35;;;1.90;;
11598;SDS011;5855;48.840;9.188;2023-03-31T00:40:53;4.47;;;2.00;;
11598;SDS011;5855;48.840;9.188;2023-03-31T00:43:27;5.30;;;2.03;;
11598;SDS011;5855;48.840;9.188;2023-03-31T00:45:59;6.00;;;2.00;;
11598;SDS011;5855;48.840;9.188;2023-03-31T00:48:32;4.60;;;1.60;;
11598;SDS011;5855;48.840;9.188;2023-03-31T00:51:03;3.72;;;1.90;;
11598;SDS011;5855;48.840;9.188;2023-03-31T00:53:31;3.10;;;1.90;;
11598;SDS011;5855;48.840;9.188;2023-03-31T00:56:00;4.38;;;2.20;;
11598;SDS011;5855;48.840;9.188;2023-03-31T00:58:33;4.65;;;2.00;;
11598;SDS011;5855;48.840;9.188;2023-03-31T01:01:07;7.22;;;2.25;;
11598;SDS011;5855;48.840;9.188;2023-03-31T01:03:39;4.40;;;2.05;;
11598;SDS011;5855;48.840;9.188;2023-03-31T01:06:11;4.97;;;1.95;;
11598;SDS011;5855;48.840;9.188;2023-03-31T01:08:40;7.18;;;2.20;;
11598;SDS011;5855;48.840;9.188;2023-03-31T01:11:09;7.10;;;2.10;;
11598;SDS011;5855;48.840;9.188;2023-03-31T01:13:41;5.63;;;1.90;;
11598;SDS011;5855;48.840;9.188;2023-03-31T01:16:10;6.78;;;2.38;;
11598;SDS011;5855;48.840;9.188;2023-03-31T01:18:37;5.53;;;2.22;;
11598;SDS011;5855;48.840;9.188;2023-03-31T01:21:14;3.78;;;1.85;;
11598;SDS011;5855;48.840;9.188;2023-03-31T01:24:26;7.38;;;1.98;;
11598;SDS011;5855;48.840;9.188;2023-03-31T01:33:14;2.95;;;1.92;;
11598;SDS011;5855;48.840;9.188;2023-03-31T01:36:13;7.45;;;2.17;;
11598;SDS011;5855;48.840;9.188;2023-03-31T01:39:18;3.00;;;1.73;;
11598;SDS011;5855;48.840;9.188;2023-03-31T01:42:09;6.57;;;2.28;;
11598;SDS011;5855;48.840;9.188;2023-03-31T01:44:42;5.53;;;2.08;;
11598;SDS011;5855;48.840;9.188;2023-03-31T01:47:13;4.60;;;1.75;;
11598;SDS011;5855;48.840;9.188;2023-03-31T01:49:48;6.25;;;2.00;;
11598;SDS011;5855;48.840;9.188;2023-03-31T01:52:22;6.10;;;2.13;;
11598;SDS011;5855;48.840;9.188;2023-03-31T01:54:53;3.42;;;1.70;;
11598;SDS011;5855;48.840;9.188;2023-03-31T01:57:28;4.25;;;1.52;;
11598;SDS011;5855;48.840;9.188;2023-03-31T02:00:01;5.18;;;1.60;;
11598;SDS011;5855;48.840;9.188;2023-03-31T02:02:31;4.38;;;1.60;;
11598;SDS011;5855;48.840;9.188;2023-03-31T02:05:04;4.63;;;1.55;;
11598;SDS011;5855;48.840;9.188;2023-03-31T02:07:35;4.22;;;1.60;;
11598;SDS011;5855;48.840;9.188;2023-03-31T02:10:06;3.60;;;1.77;;
11598;SDS011;5855;48.840;9.188;2023-03-31T02:12:37;5.47;;;1.38;;
11598;SDS011;5855;48.840;9.188;2023-03-31T02:15:07;3.22;;;1.50;;
11598;SDS011;5855;48.840;9.188;2023-03-31T02:17:39;4.07;;;1.58;;
11598;SDS011;5855;48.840;9.188;2023-03-31T02:20:10;4.18;;;1.58;;
11598;SDS011;5855;48.840;9.188;2023-03-31T02:22:40;2.65;;;1.40;;
11598;SDS011;5855;48.840;9.188;2023-03-31T02:25:11;5.45;;;1.50;;
11598;SDS011;5855;48.840;9.188;2023-03-31T02:27:44;4.22;;;1.42;;
11598;SDS011;5855;48.840;9.188;2023-03-31T02:30:16;2.28;;;1.40;;
11598;SDS011;5855;48.840;9.188;2023-03-31T02:32:43;5.47;;;1.77;;
11598;SDS011;5855;48.840;9.188;2023-03-31T02:35:12;3.45;;;1.63;;
11598;SDS011;5855;48.840;9.188;2023-03-31T02:37:41;3.97;;;1.52;;
11598;SDS011;5855;48.840;9.188;2023-03-31T02:40:11;6.57;;;1.90;;
11598;SDS011;5855;48.840;9.188;2023-03-31T02:42:41;5.63;;;2.03;;
11598;SDS011;5855;48.840;9.188;2023-03-31T02:48:09;5.25;;;2.03;;
11598;SDS011;5855;48.840;9.188;2023-03-31T02:50:50;6.28;;;2.08;;
11598;SDS011;5855;48.840;9.188;2023-03-31T02:53:32;4.47;;;1.85;;
11598;SDS011;5855;48.840;9.188;2023-03-31T02:56:11;4.82;;;1.90;;
11598;SDS011;5855;48.840;9.188;2023-03-31T02:59:03;4.97;;;2.03;;
11598;SDS011;5855;48.840;9.188;2023-03-31T03:01:52;4.07;;;1.80;;
11598;SDS011;5855;48.840;9.188;2023-03-31T03:04:35;5.53;;;1.92;;
11598;SDS011;5855;48.840;9.188;2023-03-31T03:07:21;4.53;;;2.08;;
11598;SDS011;5855;48.840;9.188;2023-03-31T03:09:57;7.82;;;2.10;;
11598;SDS011;5855;48.840;9.188;2023-03-31T03:12:31;6.53;;;2.05;;
11598;SDS011;5855;48.840;9.188;2023-03-31T03:15:05;5.30;;;2.22;;
11598;SDS011;5855;48.840;9.188;2023-03-31T03:17:36;5.07;;;2.20;;
11598;SDS011;5855;48.840;9.188;2023-03-31T03:20:06;5.13;;;2.10;;
11598;SDS011;5855;48.840;9.188;2023-03-31T03:22:34;4.95;;;2.20;;
11598;SDS011;5855;48.840;9.188;2023-03-31T03:25:02;7.65;;;2.42;;
11598;SDS011;5855;48.840;9.188;2023-03-31T03:27:29;4.68;;;1.92;;
11598;SDS011;5855;48.840;9.188;2023-03-31T03:29:56;3.60;;;1.83;;
11598;SDS011;5855;48.840;9.188;2023-03-31T03:32:25;3.65;;;2.00;;
11598;SDS011;5855;48.840;9.188;2023-03-31T03:34:51;5.22;;;2.40;;
11598;SDS011;5855;48.840;9.188;2023-03-31T03:37:18;5.10;;;2.10;;
11598;SDS011;5855;48.840;9.188;2023-03-31T03:39:45;5.25;;;2.10;;
11598;SDS011;5855;48.840;9.188;2023-03-31T03:42:12;4.75;;;2.25;;
11598;SDS011;5855;48.840;9.188;2023-03-31T03:44:38;4.15;;;2.08;;
11598;SDS011;5855;48.840;9.188;2023-03-31T03:47:05;4.13;;;2.05;;
11598;SDS011;5855;48.840;9.188;2023-03-31T03:49:33;5.05;;;2.25;;
11598;SDS011;5855;48.840;9.188;2023-03-31T03:52:00;5.72;;;2.15;;
11598;SDS011;5855;48.840;9.188;2023-03-31T03:54:27;3.55;;;1.88;;
11598;SDS011;5855;48.840;9.188;2023-03-31T03:56:54;6.63;;;2.20;;
11598;SDS011;5855;48.840;9.188;2023-03-31T03:59:20;5.70;;;2.20;;
11598;SDS011;5855;48.840;9.188;2023-03-31T04:01:47;5.53;;;2.40;;
11598;SDS011;5855;48.840;9.188;2023-03-31T04:04:14;3.40;;;2.00;;
11598;SDS011;5855;48.840;9.188;2023-03-31T04:06:43;6.95;;;2.55;;
11598;SDS011;5855;48.840;9.188;2023-03-31T04:09:09;3.67;;;2.08;;
11598;SDS011;5855;48.840;9.188;2023-03-31T04:11:36;5.82;;;2.40;;
11598;SDS011;5855;48.840;9.188;2023-03-31T04:14:03;5.63;;;2.40;;
11598;SDS011;5855;48.840;9.188;2023-03-31T04:16:30;3.92;;;2.20;;
11598;SDS011;5855;48.840;9.188;2023-03-31T04:18:58;5.72;;;2.33;;
11598;SDS011;5855;48.840;9.188;2023-03-31T04:21:28;5.22;;;2.28;;
11598;SDS011;5855;48.840;9.188;2023-03-31T04:24:00;4.45;;;2.30;;
11598;SDS011;5855;48.840;9.188;2023-03-31T04:26:29;3.30;;;2.28;;
11598;SDS011;5855;48.840;9.188;2023-03-31T04:29:03;5.30;;;2.50;;
11598;SDS011;5855;48.840;9.188;2023-03-31T04:31:30;5.13;;;2.30;;
11598;SDS011;5855;48.840;9.188;2023-03-31T04:33:57;4.32;;;2.30;;
11598;SDS011;5855;48.840;9.188;2023-03-31T04:36:26;6.65;;;2.38;;
11598;SDS011;5855;48.840;9.188;2023-03-31T04:38:55;4.80;;;2.53;;
11598;SDS011;5855;48.840;9.188;2023-03-31T04:41:24;4.95;;;2.22;;
11598;SDS011;5855;48.840;9.188;2023-03-31T04:43:52;5.97;;;2.55;;
11598;SDS011;5855;48.840;9.188;2023-03-31T04:46:19;5.50;;;2.42;;
11598;SDS011;5855;48.840;9.188;2023-03-31T04:48:47;4.95;;;2.67;;
11598;SDS011;5855;48.840;9.188;2023-03-31T04:51:13;6.80;;;2.80;;
11598;SDS011;5855;48.840;9.188;2023-03-31T04:53:40;5.75;;;2.60;;
11598;SDS011;5855;48.840;9.188;2023-03-31T04:56:07;5.53;;;2.60;;
11598;SDS011;5855;48.840;9.188;2023-03-31T04:58:36;5.15;;;2.45;;
11598;SDS011;5855;48.840;9.188;2023-03-31T05:01:03;4.97;;;2.45;;
11598;SDS011;5855;48.840;9.188;2023-03-31T05:03:31;4.72;;;2.60;;
11598;SDS011;5855;48.840;9.188;2023-03-31T05:05:58;6.07;;;3.00;;
11598;SDS011;5855;48.840;9.188;2023-03-31T05:08:25;6.32;;;2.95;;
11598;SDS011;5855;48.840;9.188;2023-03-31T05:10:52;6.10;;;2.90;;
11598;SDS011;5855;48.840;9.188;2023-03-31T05:13:19;5.72;;;2.92;;
11598;SDS011;5855;48.840;9.188;2023-03-31T05:15:47;6.22;;;2.85;;
11598;SDS011;5855;48.840;9.188;2023-03-31T05:18:15;6.47;;;2.83;;
11598;SDS011;5855;48.840;9.188;2023-03-31T05:20:42;7.75;;;3.10;;
11598;SDS011;5855;48.840;9.188;2023-03-31T05:23:09;5.55;;;2.70;;
11598;SDS011;5855;48.840;9.188;2023-03-31T05:25:36;6.32;;;3.00;;
11598;SDS011;5855;48.840;9.188;2023-03-31T05:28:03;5.70;;;3.40;;
11598;SDS011;5855;48.840;9.188;2023-03-31T05:30:30;8.07;;;3.28;;
11598;SDS011;5855;48.840;9.188;2023-03-31T05:32:58;8.20;;;3.08;;
11598;SDS011;5855;48.840;9.188;2023-03-31T05:35:25;6.43;;;3.17;;
11598;SDS011;5855;48.840;9.188;2023-03-31T05:37:52;9.25;;;3.20;;
11598;SDS011;5855;48.840;9.188;2023-03-31T05:40:18;8.60;;;3.08;;
11598;SDS011;5855;48.840;9.188;2023-03-31T05:42:45;6.05;;;3.65;;
11598;SDS011;5855;48.840;9.188;2023-03-31T05:45:12;6.88;;;3.15;;
11598;SDS011;5855;48.840;9.188;2023-03-31T05:47:39;7.97;;;3.35;;
11598;SDS011;5855;48.840;9.188;2023-03-31T05:50:08;5.93;;;3.28;;
11598;SDS011;5855;48.840;9.188;2023-03-31T05:52:35;8.45;;;3.60;;
11598;SDS011;5855;48.840;9.188;2023-03-31T05:55:02;6.97;;;3.50;;
11598;SDS011;5855;48.840;9.188;2023-03-31T05:57:29;8.73;;;4.00;;
11598;SDS011;5855;48.840;9.188;2023-03-31T05:59:56;7.93;;;3.88;;
11598;SDS011;5855;48.840;9.188;2023-03-31T06:02:23;7.38;;;3.58;;
11598;SDS011;5855;48.840;9.188;2023-03-31T06:04:50;7.30;;;3.60;;
11598;SDS011;5855;48.840;9.188;2023-03-31T06:07:18;8.65;;;4.07;;
11598;SDS011;5855;48.840;9.188;2023-03-31T06:09:46;12.55;;;7.00;;
11598;SDS011;5855;48.840;9.188;2023-03-31T06:12:13;7.80;;;3.95;;
11598;SDS011;5855;48.840;9.188;2023-03-31T06:14:40;7.28;;;3.80;;
11598;SDS011;5855;48.840;9.188;2023-03-31T06:17:06;10.68;;;4.00;;
11598;SDS011;5855;48.840;9.188;2023-03-31T06:19:33;11.68;;;3.80;;
11598;SDS011;5855;48.840;9.188;2023-03-31T06:22:00;9.07;;;4.15;;
11598;SDS011;5855;48.840;9.188;2023-03-31T06:24:28;7.35;;;4.00;;
11598;SDS011;5855;48.840;9.188;2023-03-31T06:26:55;8.07;;;4.00;;
11598;SDS011;5855;48.840;9.188;2023-03-31T06:29:22;8.45;;;3.95;;
11598;SDS011;5855;48.840;9.188;2023-03-31T06:31:49;9.55;;;4.13;;
11598;SDS011;5855;48.840;9.188;2023-03-31T06:34:16;8.15;;;4.47;;
11598;SDS011;5855;48.840;9.188;2023-03-31T06:36:43;8.15;;;4.35;;
11598;SDS011;5855;48.840;9.188;2023-03-31T06:39:10;11.93;;;4.93;;
11598;SDS011;5855;48.840;9.188;2023-03-31T06:41:38;9.20;;;4.80;;
11598;SDS011;5855;48.840;9.188;2023-03-31T06:44:05;8.68;;;4.93;;
11598;SDS011;5855;48.840;9.188;2023-03-31T06:46:31;7.10;;;4.38;;
11598;SDS011;5855;48.840;9.188;2023-03-31T06:48:58;7.25;;;4.60;;
11598;SDS011;5855;48.840;9.188;2023-03-31T06:51:25;9.65;;;5.15;;
11598;SDS011;5855;48.840;9.188;2023-03-31T06:53:52;7.65;;;4.72;;
11598;SDS011;5855;48.840;9.188;2023-03-31T06:56:18;10.32;;;4.63;;
11598;SDS011;5855;48.840;9.188;2023-03-31T06:58:47;11.85;;;5.00;;
11598;SDS011;5855;48.840;9.188;2023-03-31T07:01:14;7.90;;;4.40;;
11598;SDS011;5855;48.840;9.188;2023-03-31T07:03:41;8.10;;;4.43;;
11598;SDS011;5855;48.840;9.188;2023-03-31T07:06:07;9.25;;;4.28;;
11598;SDS011;5855;48.840;9.188;2023-03-31T07:08:34;12.73;;;4.70;;
11598;SDS011;5855;48.840;9.188;2023-03-31T07:11:01;7.50;;;4.20;;
11598;SDS011;5855;48.840;9.188;2023-03-31T07:13:28;7.03;;;4.60;;
11598;SDS011;5855;48.840;9.188;2023-03-31T07:15:56;8.45;;;4.30;;
11598;SDS011;5855;48.840;9.188;2023-03-31T07:18:23;8.35;;;3.95;;
11598;SDS011;5855;48.840;9.188;2023-03-31T07:20:56;10.52;;;4.32;;
11598;SDS011;5855;48.840;9.188;2023-03-31T07:23:23;8.80;;;3.65;;
11598;SDS011;5855;48.840;9.188;2023-03-31T07:25:50;10.48;;;4.15;;
11598;SDS011;5855;48.840;9.188;2023-03-31T07:28:17;5.65;;;3.63;;
11598;SDS011;5855;48.840;9.188;2023-03-31T07:30:44;6.07;;;3.70;;
11598;SDS011;5855;48.840;9.188;2023-03-31T07:33:12;7.38;;;3.28;;
11598;SDS011;5855;48.840;9.188;2023-03-31T07:35:40;6.55;;;3.30;;
11598;SDS011;5855;48.840;9.188;2023-03-31T07:38:07;4.25;;;2.83;;
11598;SDS011;5855;48.840;9.188;2023-03-31T07:40:34;6.68;;;2.70;;
11598;SDS011;5855;48.840;9.188;2023-03-31T07:43:02;4.70;;;2.35;;
11598;SDS011;5855;48.840;9.188;2023-03-31T07:45:29;3.83;;;2.38;;
11598;SDS011;5855;48.840;9.188;2023-03-31T07:47:56;3.80;;;2.00;;
11598;SDS011;5855;48.840;9.188;2023-03-31T07:50:25;3.47;;;2.17;;
11598;SDS011;5855;48.840;9.188;2023-03-31T07:52:52;2.97;;;1.85;;
11598;SDS011;5855;48.840;9.188;2023-03-31T07:55:19;3.70;;;1.52;;
11598;SDS011;5855;48.840;9.188;2023-03-31T07:57:47;2.45;;;1.90;;
11598;SDS011;5855;48.840;9.188;2023-03-31T08:00:15;2.40;;;1.48;;
11598;SDS011;5855;48.840;9.188;2023-03-31T08:02:43;4.45;;;1.52;;
11598;SDS011;5855;48.840;9.188;2023-03-31T08:05:10;2.85;;;1.50;;
11598;SDS011;5855;48.840;9.188;2023-03-31T08:07:41;2.50;;;1.48;;
11598;SDS011;5855;48.840;9.188;2023-03-31T08:10:10;1.40;;;1.05;;
11598;SDS011;5855;48.840;9.188;2023-03-31T08:12:39;2.88;;;1.38;;
11598;SDS011;5855;48.840;9.188;2023-03-31T08:15:06;2.90;;;1.30;;
11598;SDS011;5855;48.840;9.188;2023-03-31T08:17:34;2.15;;;1.48;;
11598;SDS011;5855;48.840;9.188;2023-03-31T08:20:01;2.65;;;1.40;;
11598;SDS011;5855;48.840;9.188;2023-03-31T08:22:30;1.77;;;1.08;;
11598;SDS011;5855;48.840;9.188;2023-03-31T08:24:59;2.60;;;1.25;;
11598;SDS011;5855;48.840;9.188;2023-03-31T08:27:25;3.70;;;1.10;;
11598;SDS011;5855;48.840;9.188;2023-03-31T08:29:52;1.83;;;1.10;;
11598;SDS011;5855;48.840;9.188;2023-03-31T08:32:20;1.55;;;1.00;;
11598;SDS011;5855;48.840;9.188;2023-03-31T08:34:48;2.78;;;1.20;;
11598;SDS011;5855;48.840;9.188;2023-03-31T08:37:16;1.95;;;1.30;;
11598;SDS011;5855;48.840;9.188;2023-03-31T08:39:42;2.65;;;1.33;;
11598;SDS011;5855;48.840;9.188;2023-03-31T08:42:12;3.60;;;1.30;;
11598;SDS011;5855;48.840;9.188;2023-03-31T08:44:43;2.65;;;1.05;;
11598;SDS011;5855;48.840;9.188;2023-03-31T08:47:17;3.88;;;1.33;;
11598;SDS011;5855;48.840;9.188;2023-03-31T08:49:48;3.00;;;1.40;;
11598;SDS011;5855;48.840;9.188;2023-03-31T08:52:21;2.25;;;1.45;;
11598;SDS011;5855;48.840;9.188;2023-03-31T08:54:51;3.03;;;1.20;;
11598;SDS011;5855;48.840;9.188;2023-03-31T08:57:24;2.35;;;1.30;;
11598;SDS011;5855;48.840;9.188;2023-03-31T08:59:55;2.45;;;1.25;;
11598;SDS011;5855;48.840;9.188;2023-03-31T09:02:30;4.65;;;1.50;;
11598;SDS011;5855;48.840;9.188;2023-03-31T09:08:02;3.40;;;1.60;;
11598;SDS011;5855;48.840;9.188;2023-03-31T09:10:41;3.33;;;1.40;;
11598;SDS011;5855;48.840;9.188;2023-03-31T09:13:20;6.03;;;1.58;;
11598;SDS011;5855;48.840;9.188;2023-03-31T09:16:04;3.50;;;1.30;;
11598;SDS011;5855;48.840;9.188;2023-03-31T09:18:38;4.18;;;1.27;;
11598;SDS011;5855;48.840;9.188;2023-03-31T09:21:11;4.68;;;1.52;;
11598;SDS011;5855;48.840;9.188;2023-03-31T09:23:45;4.88;;;1.50;;
11598;SDS011;5855;48.840;9.188;2023-03-31T09:26:19;3.42;;;1.55;;
11598;SDS011;5855;48.840;9.188;2023-03-31T09:28:52;2.90;;;1.30;;
11598;SDS011;5855;48.840;9.188;2023-03-31T09:31:20;3.42;;;1.25;;
11598;SDS011;5855;48.840;9.188;2023-03-31T09:33:48;3.30;;;1.33;;
11598;SDS011;5855;48.840;9.188;2023-03-31T09:36:19;3.58;;;1.20;;
11598;SDS011;5855;48.840;9.188;2023-03-31T09:38:48;3.88;;;1.40;;
11598;SDS011;5855;48.840;9.188;2023-03-31T09:41:16;5.07;;;1.40;;
11598;SDS011;5855;48.840;9.188;2023-03-31T09:43:44;5.30;;;1.92;;
11598;SDS011;5855;48.840;9.188;2023-03-31T09:46:15;4.90;;;1.48;;
11598;SDS011;5855;48.840;9.188;2023-03-31T09:48:49;5.63;;;1.70;;
11598;SDS011;5855;48.840;9.188;2023-03-31T09:51:22;6.05;;;1.63;;
11598;SDS011;5855;48.840;9.188;2023-03-31T09:53:55;5.15;;;1.98;;
11598;SDS011;5855;48.840;9.188;2023-03-31T09:56:31;5.03;;;1.55;;
11598;SDS011;5855;48.840;9.188;2023-03-31T09:59:00;4.38;;;1.75;;
11598;SDS011;5855;48.840;9.188;2023-03-31T10:01:29;5.38;;;1.73;;
11598;SDS011;5855;48.840;9.188;2023-03-31T10:03:56;3.67;;;1.60;;
11598;SDS011;5855;48.840;9.188;2023-03-31T10:09:11;5.78;;;1.75;;
11598;SDS011;5855;48.840;9.188;2023-03-31T10:11:38;4.82;;;1.70;;
11598;SDS011;5855;48.840;9.188;2023-03-31T10:14:16;4.43;;;1.40;;
11598;SDS011;5855;48.840;9.188;2023-03-31T10:16:44;6.00;;;1.98;;
11598;SDS011;5855;48.840;9.188;2023-03-31T10:19:17;5.43;;;1.65;;
11598;SDS011;5855;48.840;9.188;2023-03-31T10:21:47;5.35;;;1.77;;
11598;SDS011;5855;48.840;9.188;2023-03-31T10:24:20;4.85;;;1.70;;
11598;SDS011;5855;48.840;9.188;2023-03-31T10:26:47;4.22;;;1.55;;
11598;SDS011;5855;48.840;9.188;2023-03-31T10:29:18;4.82;;;1.80;;
11598;SDS011;5855;48.840;9.188;2023-03-31T10:31:50;6.82;;;1.60;;
11598;SDS011;5855;48.840;9.188;2023-03-31T10:34:18;5.30;;;1.70;;
11598;SDS011;5855;48.840;9.188;2023-03-31T10:36:46;5.10;;;1.65;;
11598;SDS011;5855;48.840;9.188;2023-03-31T10:39:15;6.15;;;1.58;;
11598;SDS011;5855;48.840;9.188;2023-03-31T10:41:43;3.47;;;1.60;;
11598;SDS011;5855;48.840;9.188;2023-03-31T10:44:29;4.15;;;1.67;;
11598;SDS011;5855;48.840;9.188;2023-03-31T10:47:04;3.85;;;1.77;;
11598;SDS011;5855;48.840;9.188;2023-03-31T10:49:36;4.53;;;1.85;;
11598;SDS011;5855;48.840;9.188;2023-03-31T10:52:10;5.78;;;1.67;;
11598;SDS011;5855;48.840;9.188;2023-03-31T10:54:46;4.47;;;1.50;;
11598;SDS011;5855;48.840;9.188;2023-03-31T10:57:13;5.75;;;1.98;;
11598;SDS011;5855;48.840;9.188;2023-03-31T10:59:44;5.03;;;1.67;;
11598;SDS011;5855;48.840;9.188;2023-03-31T11:05:34;3.75;;;1.70;;
11598;SDS011;5855;48.840;9.188;2023-03-31T11:08:14;3.28;;;1.50;;
11598;SDS011;5855;48.840;9.188;2023-03-31T11:10:58;4.13;;;1.30;;
11598;SDS011;5855;48.840;9.188;2023-03-31T11:13:39;5.45;;;1.65;;
11598;SDS011;5855;48.840;9.188;2023-03-31T11:16:16;5.47;;;1.70;;
11598;SDS011;5855;48.840;9.188;2023-03-31T11:18:56;4.93;;;2.00;;
11598;SDS011;5855;48.840;9.188;2023-03-31T11:21:37;4.97;;;1.92;;
11598;SDS011;5855;48.840;9.188;2023-03-31T11:24:15;4.97;;;1.40;;
11598;SDS011;5855;48.840;9.188;2023-03-31T11:26:52;7.30;;;0.95;;
11598;SDS011;5855;48.840;9.188;2023-03-31T11:29:31;5.65;;;1.17;;
11598;SDS011;5855;48.840;9.188;2023-03-31T11:32:05;2.17;;;1.00;;
11598;SDS011;5855;48.840;9.188;2023-03-31T11:34:57;1.83;;;0.80;;
11598;SDS011;5855;48.840;9.188;2023-03-31T11:37:44;1.50;;;0.80;;
11598;SDS011;5855;48.840;9.188;2023-03-31T11:40:34;0.85;;;0.63;;
11598;SDS011;5855;48.840;9.188;2023-03-31T11:43:12;1.65;;;0.77;;
11598;SDS011;5855;48.840;9.188;2023-03-31T11:45:47;1.02;;;0.70;;
11598;SDS011;5855;48.840;9.188;2023-03-31T11:48:20;1.45;;;0.60;;
11598;SDS011;5855;48.840;9.188;2023-03-31T11:50:56;2.35;;;0.80;;
11598;SDS011;5855;48.840;9.188;2023-03-31T11:53:26;1.23;;;0.77;;
11598;SDS011;5855;48.840;9.188;2023-03-31T11:55:56;1.13;;;0.60;;
11598;SDS011;5855;48.840;9.188;2023-03-31T11:58:27;1.58;;;0.80;;
11598;SDS011;5855;48.840;9.188;2023-03-31T12:00:59;1.40;;;0.55;;
11598;SDS011;5855;48.840;9.188;2023-03-31T12:03:34;1.85;;;0.77;;
11598;SDS011;5855;48.840;9.188;2023-03-31T12:06:10;1.27;;;0.40;;
11598;SDS011;5855;48.840;9.188;2023-03-31T12:08:45;2.33;;;0.50;;
11598;SDS011;5855;48.840;9.188;2023-03-31T12:11:21;0.65;;;0.63;;
11598;SDS011;5855;48.840;9.188;2023-03-31T12:13:54;1.52;;;0.50;;
11598;SDS011;5855;48.840;9.188;2023-03-31T12:16:28;1.08;;;0.70;;
11598;SDS011;5855;48.840;9.188;2023-03-31T12:19:03;0.60;;;0.50;;
11598;SDS011;5855;48.840;9.188;2023-03-31T12:21:36;1.30;;;0.60;;
11598;SDS011;5855;48.840;9.188;2023-03-31T12:24:09;0.90;;;0.60;;
11598;SDS011;5855;48.840;9.188;2023-03-31T12:26:39;1.13;;;0.57;;
11598;SDS011;5855;48.840;9.188;2023-03-31T12:29:18;1.10;;;0.50;;
11598;SDS011;5855;48.840;9.188;2023-03-31T12:31:52;1.98;;;0.80;;
11598;SDS011;5855;48.840;9.188;2023-03-31T12:34:21;2.78;;;0.82;;
11598;SDS011;5855;48.840;9.188;2023-03-31T12:36:57;1.83;;;1.00;;
11598;SDS011;5855;48.840;9.188;2023-03-31T12:39:40;1.73;;;0.80;;
11598;SDS011;5855;48.840;9.188;2023-03-31T12:42:31;2.70;;;1.00;;
11598;SDS011;5855;48.840;9.188;2023-03-31T12:45:23;1.92;;;0.68;;
11598;SDS011;5855;48.840;9.188;2023-03-31T12:48:10;1.90;;;0.70;;
11598;SDS011;5855;48.840;9.188;2023-03-31T12:50:53;1.88;;;0.80;;
11598;SDS011;5855;48.840;9.188;2023-03-31T12:53:30;2.63;;;0.82;;
11598;SDS011;5855;48.840;9.188;2023-03-31T12:56:02;2.28;;;1.00;;
11598;SDS011;5855;48.840;9.188;2023-03-31T12:58:36;2.78;;;0.90;;
11598;SDS011;5855;48.840;9.188;2023-03-31T13:01:12;3.90;;;1.00;;
11598;SDS011;5855;48.840;9.188;2023-03-31T13:03:42;1.80;;;1.00;;
11598;SDS011;5855;48.840;9.188;2023-03-31T13:06:11;1.60;;;1.05;;
11598;SDS011;5855;48.840;9.188;2023-03-31T13:09:39;1.92;;;1.05;;
11598;SDS011;5855;48.840;9.188;2023-03-31T13:12:17;5.40;;;1.40;;
11598;SDS011;5855;48.840;9.188;2023-03-31T13:14:46;2.97;;;1.25;;
11598;SDS011;5855;48.840;9.188;2023-03-31T13:23:02;3.40;;;1.33;;
11598;SDS011;5855;48.840;9.188;2023-03-31T13:25:45;1.48;;;0.90;;
11598;SDS011;5855;48.840;9.188;2023-03-31T13:28:26;3.58;;;1.17;;
11598;SDS011;5855;48.840;9.188;2023-03-31T13:30:58;2.75;;;1.10;;
11598;SDS011;5855;48.840;9.188;2023-03-31T13:33:30;3.72;;;1.02;;
11598;SDS011;5855;48.840;9.188;2023-03-31T13:36:06;2.45;;;0.77;;
11598;SDS011;5855;48.840;9.188;2023-03-31T13:39:06;1.95;;;0.98;;
11598;SDS011;5855;48.840;9.188;2023-03-31T13:41:53;3.20;;;0.82;;
11598;SDS011;5855;48.840;9.188;2023-03-31T13:44:30;0.88;;;0.40;;
11598;SDS011;5855;48.840;9.188;2023-03-31T13:50:14;1.33;;;0.60;;
11598;SDS011;5855;48.840;9.188;2023-03-31T13:52:51;0.88;;;0.30;;
11598;SDS011;5855;48.840;9.188;2023-03-31T14:01:27;0.75;;;0.50;;
11598;SDS011;5855;48.840;9.188;2023-03-31T14:04:07;2.38;;;0.70;;
11598;SDS011;5855;48.840;9.188;2023-03-31T14:06:54;0.38;;;0.38;;
11598;SDS011;5855;48.840;9.188;2023-03-31T14:09:25;0.63;;;0.32;;
11598;SDS011;5855;48.840;9.188;2023-03-31T14:11:57;1.92;;;0.60;;
11598;SDS011;5855;48.840;9.188;2023-03-31T14:14:24;1.13;;;0.65;;
11598;SDS011;5855;48.840;9.188;2023-03-31T14:16:54;3.00;;;0.80;;
11598;SDS011;5855;48.840;9.188;2023-03-31T14:19:36;1.42;;;0.77;;
11598;SDS011;5855;48.840;9.188;2023-03-31T14:22:21;0.85;;;0.60;;
11598;SDS011;5855;48.840;9.188;2023-03-31T14:25:01;1.13;;;0.50;;
11598;SDS011;5855;48.840;9.188;2023-03-31T14:27:40;1.33;;;0.57;;
11598;SDS011;5855;48.840;9.188;2023-03-31T14:30:17;1.25;;;0.63;;
11598;SDS011;5855;48.840;9.188;2023-03-31T14:32:59;1.42;;;0.70;;
11598;SDS011;5855;48.840;9.188;2023-03-31T14:35:35;1.90;;;0.80;;
11598;SDS011;5855;48.840;9.188;2023-03-31T14:38:09;1.35;;;0.80;;
11598;SDS011;5855;48.840;9.188;2023-03-31T14:40:43;1.73;;;0.63;;
11598;SDS011;5855;48.840;9.188;2023-03-31T14:43:16;2.35;;;0.80;;
11598;SDS011;5855;48.840;9.188;2023-03-31T14:45:45;1.60;;;0.55;;
11598;SDS011;5855;48.840;9.188;2023-03-31T14:48:13;0.65;;;0.50;;
11598;SDS011;5855;48.840;9.188;2023-03-31T14:50:41;0.80;;;0.68;;
11598;SDS011;5855;48.840;9.188;2023-03-31T14:53:12;1.05;;;0.63;;
11598;SDS011;5855;48.840;9.188;2023-03-31T14:55:39;1.85;;;0.80;;
11598;SDS011;5855;48.840;9.188;2023-03-31T14:58:07;0.88;;;0.55;;
11598;SDS011;5855;48.840;9.188;2023-03-31T15:00:39;3.83;;;0.85;;
11598;SDS011;5855;48.840;9.188;2023-03-31T15:03:07;1.20;;;0.57;;
11598;SDS011;5855;48.840;9.188;2023-03-31T15:05:40;2.35;;;0.60;;
11598;SDS011;5855;48.840;9.188;2023-03-31T15:08:09;0.98;;;0.60;;
11598;SDS011;5855;48.840;9.188;2023-03-31T15:10:39;1.40;;;0.75;;
11598;SDS011;5855;48.840;9.188;2023-03-31T15:13:09;1.13;;;0.70;;
11598;SDS011;5855;48.840;9.188;2023-03-31T15:15:40;1.20;;;0.70;;
11598;SDS011;5855;48.840;9.188;2023-03-31T15:18:09;1.20;;;0.95;;
11598;SDS011;5855;48.840;9.188;2023-03-31T15:20:40;1.58;;;0.90;;
11598;SDS011;5855;48.840;9.188;2023-03-31T15:23:18;0.50;;;0.50;;
11598;SDS011;5855;48.840;9.188;2023-03-31T15:25:48;1.55;;;0.68;;
11598;SDS011;5855;48.840;9.188;2023-03-31T15:28:18;1.05;;;0.63;;
11598;SDS011;5855;48.840;9.188;2023-03-31T15:30:46;1.17;;;0.70;;
11598;SDS011;5855;48.840;9.188;2023-03-31T15:33:17;2.22;;;0.85;;
11598;SDS011;5855;48.840;9.188;2023-03-31T15:35:48;1.05;;;0.65;;
11598;SDS011;5855;48.840;9.188;2023-03-31T15:38:15;1.23;;;0.80;;
11598;SDS011;5855;48.840;9.188;2023-03-31T15:40:43;0.90;;;0.60;;
11598;SDS011;5855;48.840;9.188;2023-03-31T15:43:13;1.67;;;0.85;;
11598;SDS011;5855;48.840;9.188;2023-03-31T15:45:46;3.05;;;1.00;;
11598;SDS011;5855;48.840;9.188;2023-03-31T15:48:18;3.72;;;0.90;;
11598;SDS011;5855;48.840;9.188;2023-03-31T15:50:49;1.83;;;1.08;;
11598;SDS011;5855;48.840;9.188;2023-03-31T15:53:22;2.08;;;1.10;;
11598;SDS011;5855;48.840;9.188;2023-03-31T15:55:52;2.83;;;0.98;;
11598;SDS011;5855;48.840;9.188;2023-03-31T15:58:22;2.63;;;0.95;;
11598;SDS011;5855;48.840;9.188;2023-03-31T16:01:10;1.20;;;0.93;;